EKOD Airport Information

Runway Information
Runway 06 Length 6053 ft width 148 ft
Elevation 44 ft Threshold 0 ft Heading 60
Runway 24 Length 6053 ft Width 148 ft
Elevation 46 ft Threshold 0 ft Heading 240
Runway 13 Length 2280 ft width 98 ft
Elevation 0 ft Threshold 0 ft Heading 130
Runway 31 Length 2280 ft Width 98 ft
Elevation 0 ft Threshold 361 ft Heading 310
Airport Frequencies
Type AFIS Name AFIS Frequency 119.525 MHZ
Airport Navaids
Airport Weather Information & NOTAM
ADDS - METARS form results

(1429 UTC 24 June 2018)
 
METAR text: EKOD 241350Z 36004KT 290V100 9999 FEW028 SCT250 21/08 Q1017
Conditions at: EKOD (ODENSE/BELDRINGE, DK) observed 1350 UTC 24 June 2018
Temperature: 21.0°C (70°F)
Dewpoint: 8.0°C (46°F) [RH = 43%]
Pressure (altimeter): 30.03 inches Hg (1017.0 mb)
Winds: from the N (360 degrees) at 5 MPH (4 knots; 2.1 m/s)
Visibility: 6 or more miles (10+ km)
Ceiling: at least 12,000 feet AGL
Clouds: few clouds at 2800 feet AGL
scattered clouds at 25000 feet AGL
Weather: no significant weather observed at this time